Time;durP1;ratioP1;P1;durP2;ratioP2;P2;SDS_P1;SDS_P2;PMS_P1;PMS_P2;Temp;Humidity;BMP_temperature;BMP_pressure;BME280_temperature;BME280_humidity;BME280_pressure;Samples;Min_cycle;Max_cycle;Signal;HPM_P1;HPM_P2
2022/01/19 00:01:26;;;;;;;0.10;0.10;;;;;;;;;;5054877;28;20054;-77
2022/01/19 00:03:52;;;;;;;0.20;0.20;;;;;;;;;;5047227;28;20518;-77
2022/01/19 00:06:19;;;;;;;0.52;0.52;;;;;;;;;;5048387;28;20050;-77
2022/01/19 00:08:45;;;;;;;0.70;0.70;;;;;;;;;;5061206;28;20084;-77
2022/01/19 00:11:11;;;;;;;0.20;0.20;;;;;;;;;;5055303;28;20086;-77
2022/01/19 00:13:38;;;;;;;0.45;0.30;;;;;;;;;;5058822;28;20522;-79
2022/01/19 00:16:04;;;;;;;1.23;1.17;;;;;;;;;;5057706;28;20096;-79
2022/01/19 00:18:30;;;;;;;0.10;0.10;;;;;;;;;;5058247;28;20040;-80
2022/01/19 00:20:57;;;;;;;0.10;0.10;;;;;;;;;;5050120;28;20028;-79
2022/01/19 00:23:24;;;;;;;0.30;0.30;;;;;;;;;;5052155;28;20043;-80
2022/01/19 00:25:51;;;;;;;0.77;0.77;;;;;;;;;;5053030;28;20037;-80
2022/01/19 00:28:17;;;;;;;0.65;0.55;;;;;;;;;;5054903;28;20025;-79
2022/01/19 00:30:43;;;;;;;0.10;0.10;;;;;;;;;;5059385;28;20043;-80
2022/01/19 00:33:09;;;;;;;0.30;0.30;;;;;;;;;;5055483;28;20021;-80
2022/01/19 00:35:36;;;;;;;0.43;0.28;;;;;;;;;;5057741;28;20111;-80
2022/01/19 00:38:03;;;;;;;0.20;0.20;;;;;;;;;;5055604;28;20532;-80
2022/01/19 00:40:29;;;;;;;;;;;;;;;;;;5059174;28;20409;-80
2022/01/19 00:42:55;;;;;;;0.10;0.10;;;;;;;;;;5059062;28;19913;-79
2022/01/19 00:45:22;;;;;;;0.30;0.30;;;;;;;;;;5056875;28;20093;-79
2022/01/19 00:47:48;;;;;;;0.20;0.20;;;;;;;;;;5049275;28;20344;-79
2022/01/19 00:50:16;;;;;;;0.30;0.30;;;;;;;;;;5059054;28;20035;-80
2022/01/19 00:52:42;;;;;;;0.45;0.45;;;;;;;;;;5064418;28;20267;-80
2022/01/19 00:55:09;;;;;;;0.30;0.30;;;;;;;;;;5063515;28;20036;-80
2022/01/19 00:57:36;;;;;;;0.10;0.10;;;;;;;;;;5048716;28;20040;-80
2022/01/19 01:00:03;;;;;;;0.10;0.10;;;;;;;;;;5050977;28;20100;-79
2022/01/19 01:02:31;;;;;;;0.32;0.32;;;;;;;;;;5049724;28;20032;-80
2022/01/19 01:04:57;;;;;;;0.10;0.10;;;;;;;;;;5050849;28;20852;-80
2022/01/19 01:07:23;;;;;;;0.55;0.55;;;;;;;;;;5047027;28;20032;-80
2022/01/19 01:09:49;;;;;;;0.20;0.20;;;;;;;;;;5056923;28;20028;-80
2022/01/19 01:12:22;;;;;;;0.73;0.73;;;;;;;;;;5067999;28;20093;-79
2022/01/19 01:20:19;;;;;;;0.20;0.20;;;;;;;;;;5048129;28;20063;-78
2022/01/19 01:22:45;;;;;;;0.68;0.68;;;;;;;;;;5047932;28;20478;-78
2022/01/19 01:25:11;;;;;;;0.10;0.10;;;;;;;;;;5055978;28;20844;-78
2022/01/19 01:27:38;;;;;;;0.20;0.20;;;;;;;;;;5051803;28;20045;-78
2022/01/19 01:30:05;;;;;;;0.75;0.75;;;;;;;;;;5056304;28;20334;-77
2022/01/19 01:32:31;;;;;;;0.32;0.32;;;;;;;;;;5048827;28;20516;-78
2022/01/19 01:34:57;;;;;;;0.10;0.10;;;;;;;;;;5058214;28;20687;-78
2022/01/19 01:37:23;;;;;;;0.20;0.20;;;;;;;;;;5061361;28;20067;-78
2022/01/19 01:39:49;;;;;;;0.10;0.10;;;;;;;;;;5048296;28;20028;-78
2022/01/19 01:42:16;;;;;;;0.10;0.10;;;;;;;;;;5061617;28;20541;-78
2022/01/19 01:44:48;;;;;;;0.57;0.57;;;;;;;;;;5047818;28;20029;-78
2022/01/19 01:47:15;;;;;;;0.95;0.88;;;;;;;;;;5056917;28;20507;-78
2022/01/19 01:54:56;;;;;;;0.32;0.32;;;;;;;;;;5061345;28;20528;-78
2022/01/19 01:57:22;;;;;;;0.10;0.10;;;;;;;;;;5061533;28;20093;-78
2022/01/19 01:59:48;;;;;;;0.10;0.10;;;;;;;;;;5055196;28;20025;-77
2022/01/19 02:02:14;;;;;;;0.43;0.43;;;;;;;;;;5064214;28;20082;-78
2022/01/19 02:04:41;;;;;;;0.20;0.20;;;;;;;;;;5062913;28;20953;-78
2022/01/19 02:09:52;;;;;;;0.75;0.68;;;;;;;;;;5057924;28;20061;-78
2022/01/19 02:25:48;;;;;;;0.22;0.22;;;;;;;;;;5064335;28;20075;-79
2022/01/19 02:41:42;;;;;;;0.70;0.55;;;;;;;;;;5055310;28;20075;-79
2022/01/19 02:44:10;;;;;;;0.10;0.10;;;;;;;;;;5056461;28;20553;-79
2022/01/19 02:49:19;;;;;;;0.10;0.10;;;;;;;;;;5064150;28;20028;-77
2022/01/19 02:51:47;;;;;;;0.10;0.10;;;;;;;;;;5058112;28;20036;-78
2022/01/19 02:54:17;;;;;;;0.98;0.50;;;;;;;;;;5053844;28;20452;-78
2022/01/19 02:56:47;;;;;;;0.10;0.10;;;;;;;;;;5047392;28;20033;-78
2022/01/19 02:59:30;;;;;;;0.73;0.25;;;;;;;;;;5053811;28;20085;-79
2022/01/19 03:10:10;;;;;;;0.20;0.20;;;;;;;;;;5051172;28;20027;-79
2022/01/19 03:12:36;;;;;;;0.20;0.20;;;;;;;;;;5059630;28;20025;-79
2022/01/19 03:15:02;;;;;;;0.30;0.30;;;;;;;;;;5062661;28;20075;-79
2022/01/19 03:17:28;;;;;;;5.18;0.85;;;;;;;;;;5058682;28;20029;-79
2022/01/19 03:19:54;;;;;;;0.13;0.13;;;;;;;;;;5054599;28;20037;-79
2022/01/19 03:22:27;;;;;;;0.10;0.10;;;;;;;;;;5049830;28;20029;-79
2022/01/19 03:24:53;;;;;;;0.63;0.35;;;;;;;;;;5048596;28;20032;-79
2022/01/19 03:27:19;;;;;;;0.30;0.30;;;;;;;;;;5050429;28;20054;-79
2022/01/19 03:29:46;;;;;;;0.20;0.20;;;;;;;;;;5047175;28;20108;-80
2022/01/19 03:32:12;;;;;;;0.22;0.22;;;;;;;;;;5053508;28;20033;-80
2022/01/19 03:34:39;;;;;;;0.10;0.10;;;;;;;;;;5049535;28;20044;-80
2022/01/19 03:37:05;;;;;;;0.30;0.30;;;;;;;;;;5057600;28;20807;-80
2022/01/19 03:39:32;;;;;;;0.10;0.10;;;;;;;;;;5057565;28;20040;-80
2022/01/19 03:41:58;;;;;;;0.10;0.10;;;;;;;;;;5050652;28;20028;-79
2022/01/19 03:44:24;;;;;;;0.32;0.32;;;;;;;;;;5049814;28;20033;-80
2022/01/19 03:46:56;;;;;;;0.10;0.10;;;;;;;;;;5052822;28;20029;-80
2022/01/19 03:49:27;;;;;;;0.63;0.63;;;;;;;;;;5045241;28;20609;-80
2022/01/19 03:51:54;;;;;;;0.20;0.20;;;;;;;;;;5054084;28;20222;-79
2022/01/19 03:54:21;;;;;;;0.20;0.20;;;;;;;;;;5046330;28;20090;-80
2022/01/19 03:56:47;;;;;;;0.20;0.20;;;;;;;;;;5054144;28;20930;-80
2022/01/19 03:59:13;;;;;;;0.80;0.75;;;;;;;;;;5051665;28;20198;-80
2022/01/19 04:01:39;;;;;;;0.20;0.20;;;;;;;;;;5050089;28;20544;-78
2022/01/19 04:07:08;;;;;;;0.10;0.10;;;;;;;;;;5052132;28;20043;-77
2022/01/19 04:09:27;;;;;;;0.10;0.10;;;;;;;;;;5053231;28;20042;-78
2022/01/19 04:11:53;;;;;;;0.43;0.32;;;;;;;;;;5051166;28;20033;-77
2022/01/19 04:14:22;;;;;;;0.17;0.17;;;;;;;;;;5067742;28;20033;-79
2022/01/19 04:16:49;;;;;;;0.10;0.10;;;;;;;;;;5054144;28;20267;-78
2022/01/19 04:21:47;;;;;;;0.10;0.10;;;;;;;;;;5045989;28;20112;-77
2022/01/19 04:24:13;;;;;;;0.10;0.10;;;;;;;;;;5048988;28;20048;-77
2022/01/19 04:26:39;;;;;;;0.98;0.47;;;;;;;;;;5044772;28;20048;-77
2022/01/19 04:29:05;;;;;;;0.82;0.82;;;;;;;;;;5047326;28;20032;-78
2022/01/19 04:31:32;;;;;;;0.15;0.15;;;;;;;;;;5053115;28;20029;-77
2022/01/19 04:34:02;;;;;;;0.10;0.10;;;;;;;;;;5053037;28;20036;-78
2022/01/19 04:39:27;;;;;;;0.10;0.10;;;;;;;;;;5002368;28;20143;-78
2022/01/19 04:45:21;;;;;;;0.20;0.20;;;;;;;;;;5006124;28;20627;-78
2022/01/19 05:04:07;;;;;;;0.10;0.10;;;;;;;;;;5009281;28;20044;-78
2022/01/19 05:06:37;;;;;;;0.15;0.15;;;;;;;;;;5012357;28;20044;-77
2022/01/19 05:09:38;;;;;;;0.17;0.17;;;;;;;;;;5001868;28;20408;-78
2022/01/19 05:14:37;;;;;;;0.77;0.47;;;;;;;;;;5007184;28;20134;-79
2022/01/19 05:17:03;;;;;;;0.20;0.20;;;;;;;;;;5028920;28;20084;-78
2022/01/19 05:19:29;;;;;;;0.63;0.55;;;;;;;;;;5049730;28;20029;-78
2022/01/19 05:21:55;;;;;;;0.10;0.10;;;;;;;;;;5047710;28;20039;-76
2022/01/19 05:24:21;;;;;;;0.10;0.10;;;;;;;;;;5055505;28;20032;-79
2022/01/19 05:26:50;;;;;;;0.10;0.10;;;;;;;;;;5046587;28;20055;-78
2022/01/19 05:29:16;;;;;;;0.20;0.20;;;;;;;;;;5044730;28;20056;-77
2022/01/19 05:31:42;;;;;;;0.20;0.20;;;;;;;;;;5046144;28;20546;-78
2022/01/19 05:34:08;;;;;;;0.10;0.10;;;;;;;;;;5044990;28;20029;-78
2022/01/19 05:36:34;;;;;;;0.20;0.20;;;;;;;;;;5056098;28;20480;-78
2022/01/19 05:39:04;;;;;;;0.10;0.10;;;;;;;;;;5051280;28;20627;-81
2022/01/19 05:41:30;;;;;;;0.10;0.10;;;;;;;;;;5054939;28;20068;-81
2022/01/19 05:43:56;;;;;;;0.00;0.00;;;;;;;;;;5052769;28;20459;-80
2022/01/19 05:46:23;;;;;;;0.30;0.30;;;;;;;;;;5058534;28;20055;-80
2022/01/19 05:48:49;;;;;;;1.00;1.00;;;;;;;;;;5053094;28;20024;-80
2022/01/19 05:51:15;;;;;;;0.23;0.23;;;;;;;;;;5053362;28;20043;-81
2022/01/19 05:53:41;;;;;;;0.65;0.57;;;;;;;;;;5048937;28;20033;-79
2022/01/19 05:56:07;;;;;;;0.30;0.30;;;;;;;;;;5056287;28;20028;-82
2022/01/19 05:58:33;;;;;;;0.10;0.10;;;;;;;;;;5053879;28;20119;-85
2022/01/19 06:01:00;;;;;;;0.38;0.38;;;;;;;;;;5052710;28;20025;-84
2022/01/19 06:03:26;;;;;;;0.13;0.13;;;;;;;;;;5052623;28;20036;-83
2022/01/19 06:05:52;;;;;;;5.47;3.30;;;;;;;;;;5042734;28;20025;-82
2022/01/19 06:08:39;;;;;;;0.40;0.40;;;;;;;;;;5046115;28;20275;-83
2022/01/19 06:11:04;;;;;;;0.10;0.10;;;;;;;;;;5044360;28;20127;-77
2022/01/19 06:13:30;;;;;;;1.77;0.52;;;;;;;;;;5044494;28;20159;-79
2022/01/19 06:15:56;;;;;;;0.20;0.20;;;;;;;;;;5043665;28;20097;-82
2022/01/19 06:18:22;;;;;;;0.35;0.35;;;;;;;;;;5047172;28;20177;-83
2022/01/19 06:20:48;;;;;;;0.10;0.10;;;;;;;;;;5055007;28;20035;-81
2022/01/19 06:23:15;;;;;;;0.20;0.20;;;;;;;;;;5055807;28;20033;-76
2022/01/19 06:25:41;;;;;;;0.40;0.40;;;;;;;;;;5048321;28;20024;-81
2022/01/19 06:28:07;;;;;;;3.22;1.95;;;;;;;;;;5053791;28;20051;-81
2022/01/19 06:30:33;;;;;;;0.40;0.40;;;;;;;;;;5059385;28;20021;-79
2022/01/19 06:32:59;;;;;;;3.37;0.33;;;;;;;;;;5061389;28;20520;-80
2022/01/19 06:35:25;;;;;;;0.68;0.68;;;;;;;;;;5062267;28;20504;-78
2022/01/19 06:37:51;;;;;;;0.10;0.10;;;;;;;;;;5065241;28;20068;-79
2022/01/19 06:40:19;;;;;;;0.17;0.17;;;;;;;;;;5064593;28;20051;-79
2022/01/19 06:42:45;;;;;;;0.10;0.10;;;;;;;;;;5065627;28;20028;-80
2022/01/19 06:45:12;;;;;;;0.10;0.10;;;;;;;;;;5066205;28;20123;-81
2022/01/19 06:47:39;;;;;;;0.20;0.20;;;;;;;;;;5065287;28;20577;-79
2022/01/19 06:50:06;;;;;;;0.22;0.22;;;;;;;;;;5065131;28;20427;-79
2022/01/19 06:52:33;;;;;;;0.30;0.30;;;;;;;;;;5063844;28;20028;-79
2022/01/19 06:54:59;;;;;;;1.50;1.40;;;;;;;;;;5050755;28;20028;-80
2022/01/19 06:57:25;;;;;;;0.40;0.40;;;;;;;;;;5065365;28;20046;-80
2022/01/19 06:59:51;;;;;;;0.27;0.27;;;;;;;;;;5065699;28;20024;-80
2022/01/19 07:02:18;;;;;;;0.35;0.35;;;;;;;;;;5057717;28;20199;-80
2022/01/19 07:04:49;;;;;;;0.60;0.60;;;;;;;;;;5057011;28;20040;-79
2022/01/19 07:07:15;;;;;;;0.28;0.28;;;;;;;;;;5065174;28;20016;-80
2022/01/19 07:09:41;;;;;;;0.10;0.10;;;;;;;;;;5065452;28;20071;-80
2022/01/19 07:12:08;;;;;;;0.20;0.20;;;;;;;;;;5065846;28;20020;-80
2022/01/19 07:14:34;;;;;;;0.50;0.50;;;;;;;;;;5065200;28;20044;-80
2022/01/19 07:17:00;;;;;;;1.27;1.27;;;;;;;;;;5054977;28;20033;-80
2022/01/19 07:19:26;;;;;;;1.50;1.40;;;;;;;;;;5053531;28;20051;-79
2022/01/19 07:21:52;;;;;;;1.93;1.03;;;;;;;;;;5059871;28;20123;-80
2022/01/19 07:24:18;;;;;;;3.53;3.25;;;;;;;;;;5063237;28;20036;-80
2022/01/19 07:26:44;;;;;;;2.07;1.97;;;;;;;;;;5063163;28;20139;-80
2022/01/19 07:29:10;;;;;;;1.50;1.40;;;;;;;;;;5064522;28;20588;-80
2022/01/19 07:31:36;;;;;;;0.40;0.40;;;;;;;;;;5064637;28;20029;-80
2022/01/19 07:34:02;;;;;;;0.53;0.50;;;;;;;;;;5064856;28;20035;-80
2022/01/19 07:36:29;;;;;;;0.30;0.30;;;;;;;;;;5048485;28;20991;-80
2022/01/19 07:38:55;;;;;;;0.57;0.57;;;;;;;;;;5061738;28;20047;-80
2022/01/19 07:41:22;;;;;;;2.03;1.30;;;;;;;;;;5064372;28;20029;-80
2022/01/19 07:43:48;;;;;;;0.57;0.57;;;;;;;;;;5061566;28;20374;-83
2022/01/19 07:46:15;;;;;;;0.10;0.10;;;;;;;;;;5077259;28;20028;-84
2022/01/19 07:48:41;;;;;;;1.00;1.00;;;;;;;;;;5064144;28;20033;-85
2022/01/19 07:51:07;;;;;;;1.67;1.53;;;;;;;;;;5065347;28;20567;-86
2022/01/19 07:53:33;;;;;;;0.95;0.85;;;;;;;;;;5064723;28;20540;-86
2022/01/19 07:55:59;;;;;;;0.47;0.30;;;;;;;;;;5064397;28;20811;-86
2022/01/19 07:58:25;;;;;;;2.67;1.67;;;;;;;;;;5064823;28;20041;-86
2022/01/19 08:00:51;;;;;;;0.47;0.47;;;;;;;;;;5064404;28;20049;-86
2022/01/19 08:03:18;;;;;;;2.28;2.00;;;;;;;;;;5065166;28;20028;-86
2022/01/19 08:05:44;;;;;;;1.47;1.40;;;;;;;;;;5064080;28;20133;-84
2022/01/19 08:08:10;;;;;;;0.90;0.80;;;;;;;;;;5053035;28;20029;-86
2022/01/19 08:10:36;;;;;;;0.67;0.67;;;;;;;;;;5054543;28;20028;-86
2022/01/19 08:13:03;;;;;;;0.98;0.98;;;;;;;;;;5063825;28;20271;-85
2022/01/19 08:15:30;;;;;;;4.07;1.35;;;;;;;;;;5064080;28;20034;-86
2022/01/19 08:17:56;;;;;;;0.40;0.40;;;;;;;;;;5064328;28;20135;-86
2022/01/19 08:20:22;;;;;;;1.43;0.60;;;;;;;;;;5055520;28;20041;-86
2022/01/19 08:22:48;;;;;;;0.65;0.65;;;;;;;;;;5055995;28;20048;-86
2022/01/19 08:25:15;;;;;;;1.23;0.88;;;;;;;;;;5064152;28;20035;-85
2022/01/19 08:27:41;;;;;;;1.30;0.57;;;;;;;;;;5063937;28;20048;-86
2022/01/19 08:30:08;;;;;;;0.07;0.07;;;;;;;;;;5064647;28;20028;-86
2022/01/19 08:32:35;;;;;;;0.15;0.15;;;;;;;;;;5063852;28;20037;-85
2022/01/19 08:35:02;;;;;;;0.15;0.15;;;;;;;;;;5063716;28;20024;-86
2022/01/19 08:37:28;;;;;;;0.80;0.40;;;;;;;;;;5063207;28;20071;-86
2022/01/19 08:39:54;;;;;;;0.32;0.32;;;;;;;;;;5063612;28;20032;-86
2022/01/19 08:42:20;;;;;;;0.38;0.38;;;;;;;;;;5048171;28;20864;-85
2022/01/19 08:44:46;;;;;;;0.40;0.40;;;;;;;;;;5057920;28;20120;-86
2022/01/19 08:47:12;;;;;;;0.10;0.10;;;;;;;;;;5059237;28;20071;-86
2022/01/19 08:49:39;;;;;;;0.30;0.30;;;;;;;;;;5056864;28;20104;-85
2022/01/19 08:52:05;;;;;;;1.40;0.60;;;;;;;;;;5050031;28;20060;-86
2022/01/19 08:54:31;;;;;;;0.40;0.40;;;;;;;;;;5063970;28;20529;-85
2022/01/19 08:57:00;;;;;;;2.20;1.13;;;;;;;;;;5064090;28;20033;-86
2022/01/19 08:59:26;;;;;;;0.28;0.28;;;;;;;;;;5062751;28;20086;-86
2022/01/19 09:01:52;;;;;;;0.90;0.52;;;;;;;;;;5055755;28;20512;-85
2022/01/19 09:04:18;;;;;;;0.30;0.30;;;;;;;;;;5051710;28;20032;-86
2022/01/19 09:06:45;;;;;;;0.73;0.73;;;;;;;;;;5047517;28;20807;-86
2022/01/19 09:09:11;;;;;;;3.92;0.60;;;;;;;;;;5049623;28;20538;-86
2022/01/19 09:11:37;;;;;;;0.30;0.30;;;;;;;;;;5062669;28;20044;-86
2022/01/19 09:14:06;;;;;;;0.52;0.52;;;;;;;;;;5057974;28;20037;-85
2022/01/19 09:16:33;;;;;;;0.10;0.10;;;;;;;;;;5052155;28;20024;-86
2022/01/19 09:18:59;;;;;;;0.75;0.75;;;;;;;;;;5048863;28;20067;-86
2022/01/19 09:21:25;;;;;;;0.20;0.20;;;;;;;;;;5046326;28;20079;-86
2022/01/19 09:23:51;;;;;;;0.50;0.38;;;;;;;;;;5052192;28;20505;-86
2022/01/19 09:26:17;;;;;;;3.77;1.43;;;;;;;;;;5071717;28;20540;-86
2022/01/19 09:28:43;;;;;;;0.70;0.70;;;;;;;;;;5055459;28;20029;-86
2022/01/19 09:31:12;;;;;;;2.65;1.27;;;;;;;;;;5063767;28;20048;-86
2022/01/19 09:33:39;;;;;;;4.65;0.55;;;;;;;;;;5063749;28;20053;-86
2022/01/19 09:36:18;;;;;;;0.82;0.82;;;;;;;;;;5064596;28;20039;-86
2022/01/19 09:38:44;;;;;;;0.25;0.25;;;;;;;;;;5052937;28;20036;-86
2022/01/19 09:41:11;;;;;;;0.20;0.20;;;;;;;;;;5059014;28;20121;-86
2022/01/19 09:43:37;;;;;;;0.43;0.43;;;;;;;;;;5064044;28;20283;-86
2022/01/19 09:46:03;;;;;;;0.90;0.90;;;;;;;;;;5063859;28;20090;-86
2022/01/19 09:48:30;;;;;;;0.32;0.32;;;;;;;;;;5063912;28;20031;-85
2022/01/19 09:50:57;;;;;;;1.27;1.17;;;;;;;;;;5064058;28;20078;-86
2022/01/19 09:53:23;;;;;;;0.70;0.70;;;;;;;;;;5055192;28;20094;-85
2022/01/19 09:55:50;;;;;;;1.38;1.27;;;;;;;;;;5052029;28;20048;-86
2022/01/19 09:58:18;;;;;;;0.20;0.20;;;;;;;;;;5051266;28;20052;-86
2022/01/19 10:00:45;;;;;;;0.32;0.30;;;;;;;;;;5063471;28;20052;-86
2022/01/19 10:03:28;;;;;;;1.25;0.60;;;;;;;;;;5049137;28;20029;-86
2022/01/19 10:06:03;;;;;;;1.55;0.98;;;;;;;;;;5063130;28;20024;-86
2022/01/19 10:08:34;;;;;;;0.45;0.45;;;;;;;;;;5054410;28;20086;-86
2022/01/19 10:11:07;;;;;;;0.28;0.28;;;;;;;;;;5059112;28;20035;-86
2022/01/19 10:19:21;;;;;;;1.10;1.10;;;;;;;;;;5053649;28;20562;-86
2022/01/19 10:22:05;;;;;;;0.05;0.05;;;;;;;;;;5050876;28;20029;-86
2022/01/19 10:24:32;;;;;;;0.98;0.40;;;;;;;;;;5064650;28;20021;-85
2022/01/19 10:27:18;;;;;;;0.57;0.57;;;;;;;;;;5053902;28;20068;-85
2022/01/19 10:29:45;;;;;;;0.75;0.43;;;;;;;;;;5066516;28;20031;-86
2022/01/19 10:32:11;;;;;;;0.20;0.20;;;;;;;;;;5060026;28;20075;-85
2022/01/19 10:34:37;;;;;;;0.60;0.57;;;;;;;;;;5072649;28;20021;-86
2022/01/19 10:37:05;;;;;;;0.70;0.70;;;;;;;;;;5066713;28;20055;-86
2022/01/19 10:39:49;;;;;;;1.35;1.25;;;;;;;;;;5050508;28;20044;-85
2022/01/19 10:42:17;;;;;;;5.50;1.75;;;;;;;;;;5050040;28;20041;-85
2022/01/19 10:44:43;;;;;;;0.25;0.25;;;;;;;;;;5065975;28;20036;-85
2022/01/19 10:47:12;;;;;;;0.10;0.10;;;;;;;;;;5059930;28;20025;-85
2022/01/19 10:49:48;;;;;;;4.65;2.15;;;;;;;;;;5056817;28;20074;-85
2022/01/19 10:52:27;;;;;;;0.38;0.38;;;;;;;;;;5066134;28;20350;-85
2022/01/19 10:54:53;;;;;;;0.40;0.40;;;;;;;;;;5050843;28;20123;-85
2022/01/19 10:57:19;;;;;;;0.53;0.53;;;;;;;;;;5065107;28;20551;-85
2022/01/19 10:59:46;;;;;;;1.87;1.70;;;;;;;;;;5066302;28;20349;-85
2022/01/19 11:02:12;;;;;;;0.23;0.23;;;;;;;;;;5059480;28;20060;-85
2022/01/19 11:04:42;;;;;;;1.20;0.52;;;;;;;;;;5054840;28;20024;-85
2022/01/19 11:07:11;;;;;;;0.10;0.10;;;;;;;;;;5066779;28;20144;-85
2022/01/19 11:10:13;;;;;;;1.00;1.00;;;;;;;;;;5065831;28;20060;-85
2022/01/19 11:12:38;;;;;;;0.20;0.20;;;;;;;;;;5060286;28;20037;-85
2022/01/19 11:15:04;;;;;;;0.43;0.43;;;;;;;;;;5050889;28;20103;-85
2022/01/19 11:17:30;;;;;;;1.10;0.67;;;;;;;;;;5069366;28;20299;-85
2022/01/19 11:19:56;;;;;;;1.00;0.60;;;;;;;;;;5054365;28;20310;-85
2022/01/19 11:22:34;;;;;;;1.23;0.87;;;;;;;;;;5053778;28;20024;-85
2022/01/19 11:25:08;;;;;;;0.60;0.60;;;;;;;;;;5051166;28;20281;-85
2022/01/19 11:27:38;;;;;;;1.75;0.75;;;;;;;;;;5063915;28;20529;-86
2022/01/19 11:30:08;;;;;;;0.17;0.17;;;;;;;;;;5050706;28;20110;-85
2022/01/19 11:32:34;;;;;;;0.10;0.10;;;;;;;;;;5063918;28;20051;-85
2022/01/19 11:35:02;;;;;;;1.25;0.55;;;;;;;;;;5056145;28;20027;-85
2022/01/19 11:37:48;;;;;;;0.13;0.13;;;;;;;;;;5054763;28;20035;-85
2022/01/19 11:40:16;;;;;;;0.20;0.20;;;;;;;;;;5065771;28;20110;-85
2022/01/19 11:42:43;;;;;;;0.47;0.40;;;;;;;;;;5065437;28;20029;-85
2022/01/19 11:45:10;;;;;;;2.28;0.47;;;;;;;;;;5065559;28;20416;-85
2022/01/19 11:47:38;;;;;;;0.57;0.57;;;;;;;;;;5050899;28;20123;-85
2022/01/19 11:50:19;;;;;;;0.08;0.08;;;;;;;;;;5069100;28;20033;-85
2022/01/19 11:52:47;;;;;;;0.35;0.35;;;;;;;;;;5057185;28;20012;-86
2022/01/19 11:55:13;;;;;;;2.40;0.65;;;;;;;;;;5060316;28;20489;-86
2022/01/19 11:57:40;;;;;;;0.80;0.77;;;;;;;;;;5058315;28;20128;-86
2022/01/19 12:00:12;;;;;;;0.55;0.22;;;;;;;;;;5061117;28;20025;-86
2022/01/19 12:02:40;;;;;;;0.20;0.20;;;;;;;;;;5062487;28;20032;-86
2022/01/19 12:05:09;;;;;;;0.20;0.20;;;;;;;;;;5061151;28;20024;-86
2022/01/19 12:07:45;;;;;;;0.38;0.38;;;;;;;;;;5061519;28;20024;-86
2022/01/19 12:10:13;;;;;;;0.68;0.40;;;;;;;;;;5061258;28;20033;-86
2022/01/19 12:13:08;;;;;;;0.10;0.10;;;;;;;;;;5063050;28;20028;-86
2022/01/19 12:15:44;;;;;;;0.60;0.60;;;;;;;;;;5057571;28;20051;-86
2022/01/19 12:18:30;;;;;;;1.45;0.85;;;;;;;;;;5058817;28;20622;-86
2022/01/19 12:20:56;;;;;;;1.85;1.27;;;;;;;;;;5060970;28;20730;-86
2022/01/19 12:23:30;;;;;;;0.10;0.10;;;;;;;;;;5059515;28;20564;-86
2022/01/19 12:25:57;;;;;;;0.20;0.20;;;;;;;;;;5059318;28;20044;-86
2022/01/19 12:28:42;;;;;;;0.28;0.28;;;;;;;;;;5061609;28;20106;-86
2022/01/19 12:31:23;;;;;;;0.30;0.30;;;;;;;;;;5062666;28;20412;-86
2022/01/19 12:34:04;;;;;;;0.43;0.43;;;;;;;;;;5062065;28;20025;-86
2022/01/19 12:36:42;;;;;;;1.75;0.85;;;;;;;;;;5061112;28;20721;-86
2022/01/19 12:39:27;;;;;;;1.02;0.95;;;;;;;;;;5048610;28;20044;-86
2022/01/19 12:42:22;;;;;;;0.25;0.25;;;;;;;;;;5050565;28;20029;-86
2022/01/19 12:44:50;;;;;;;1.15;1.08;;;;;;;;;;5063825;28;20039;-84
2022/01/19 12:47:25;;;;;;;0.30;0.30;;;;;;;;;;5052263;28;20024;-85
2022/01/19 12:49:52;;;;;;;0.20;0.20;;;;;;;;;;5051995;28;20029;-85
2022/01/19 12:52:19;;;;;;;0.30;0.30;;;;;;;;;;5051276;28;20059;-85
2022/01/19 12:54:45;;;;;;;0.52;0.38;;;;;;;;;;5047339;28;20496;-85
2022/01/19 12:57:15;;;;;;;0.10;0.10;;;;;;;;;;5060585;28;20036;-85
2022/01/19 12:59:43;;;;;;;0.32;0.32;;;;;;;;;;5062977;28;20135;-85
2022/01/19 13:02:11;;;;;;;0.15;0.15;;;;;;;;;;5056800;28;20526;-86
2022/01/19 13:04:38;;;;;;;0.20;0.20;;;;;;;;;;5052294;28;20134;-86
2022/01/19 13:07:17;;;;;;;1.00;0.38;;;;;;;;;;5049186;28;20024;-85
2022/01/19 13:10:10;;;;;;;0.30;0.30;;;;;;;;;;5047456;28;20036;-85
2022/01/19 13:12:42;;;;;;;0.10;0.10;;;;;;;;;;5060292;28;20821;-85
2022/01/19 13:15:08;;;;;;;0.10;0.10;;;;;;;;;;5049530;28;20454;-85
2022/01/19 13:17:42;;;;;;;0.00;0.00;;;;;;;;;;5067310;28;20063;-86
2022/01/19 13:20:12;;;;;;;1.05;0.98;;;;;;;;;;5051638;28;20510;-85
2022/01/19 13:22:49;;;;;;;0.45;0.45;;;;;;;;;;5068441;28;20044;-86
2022/01/19 13:25:16;;;;;;;2.40;2.20;;;;;;;;;;5061080;28;20437;-85
2022/01/19 13:27:46;;;;;;;0.90;0.75;;;;;;;;;;5061559;28;20048;-86
2022/01/19 13:30:15;;;;;;;0.30;0.30;;;;;;;;;;5060693;28;20107;-85
2022/01/19 13:32:41;;;;;;;0.10;0.10;;;;;;;;;;5060077;28;20961;-85
2022/01/19 13:35:09;;;;;;;0.35;0.35;;;;;;;;;;5061907;28;20685;-86
2022/01/19 13:37:37;;;;;;;3.25;1.40;;;;;;;;;;5061681;28;20470;-85
2022/01/19 13:40:06;;;;;;;0.15;0.15;;;;;;;;;;5061677;28;20431;-86
2022/01/19 13:42:34;;;;;;;0.30;0.30;;;;;;;;;;5060538;28;20024;-86
2022/01/19 13:45:08;;;;;;;0.38;0.38;;;;;;;;;;5063164;28;20025;-85
2022/01/19 13:47:52;;;;;;;0.10;0.10;;;;;;;;;;5066785;28;20142;-86
2022/01/19 13:50:19;;;;;;;0.30;0.30;;;;;;;;;;5066309;28;20033;-85
2022/01/19 13:52:45;;;;;;;0.38;0.38;;;;;;;;;;5066547;28;20642;-85
2022/01/19 13:55:22;;;;;;;1.02;0.98;;;;;;;;;;5064660;28;20060;-85
2022/01/19 13:57:48;;;;;;;0.38;0.38;;;;;;;;;;5066258;28;20028;-85
2022/01/19 14:00:16;;;;;;;0.65;0.65;;;;;;;;;;5067153;28;20058;-85
2022/01/19 14:03:02;;;;;;;0.10;0.10;;;;;;;;;;5066134;28;20062;-86
2022/01/19 14:05:37;;;;;;;4.13;1.97;;;;;;;;;;5065993;28;20024;-85
2022/01/19 14:08:03;;;;;;;1.15;0.28;;;;;;;;;;5065740;28;20275;-85
2022/01/19 14:10:39;;;;;;;0.20;0.20;;;;;;;;;;5065569;28;20032;-86
2022/01/19 14:13:41;;;;;;;1.58;1.45;;;;;;;;;;5063449;28;20037;-86
2022/01/19 14:16:25;;;;;;;0.13;0.13;;;;;;;;;;5003093;28;20041;-85
2022/01/19 14:19:07;;;;;;;0.68;0.68;;;;;;;;;;5002893;28;20050;-85
2022/01/19 14:21:33;;;;;;;0.20;0.20;;;;;;;;;;4985502;28;20053;-85
2022/01/19 14:23:59;;;;;;;0.28;0.28;;;;;;;;;;5003399;28;20092;-86
2022/01/19 14:26:25;;;;;;;4.28;0.30;;;;;;;;;;5002876;28;20056;-85
2022/01/19 14:29:10;;;;;;;0.10;0.10;;;;;;;;;;5002803;28;20053;-85
2022/01/19 14:31:47;;;;;;;0.57;0.43;;;;;;;;;;5003085;28;20372;-85
2022/01/19 14:34:13;;;;;;;0.47;0.43;;;;;;;;;;5003072;28;20123;-85
2022/01/19 14:36:39;;;;;;;0.30;0.30;;;;;;;;;;5003320;28;20088;-85
2022/01/19 14:39:05;;;;;;;1.90;0.73;;;;;;;;;;5003538;28;20045;-86
2022/01/19 14:41:36;;;;;;;0.30;0.30;;;;;;;;;;5002128;28;20074;-86
2022/01/19 14:44:08;;;;;;;1.27;0.30;;;;;;;;;;5002317;28;20281;-85
2022/01/19 14:46:42;;;;;;;2.65;1.67;;;;;;;;;;5002547;28;20416;-86
2022/01/19 14:49:08;;;;;;;0.25;0.25;;;;;;;;;;5007469;28;20034;-86
2022/01/19 14:51:38;;;;;;;0.38;0.32;;;;;;;;;;5062496;28;20029;-86
2022/01/19 14:54:08;;;;;;;0.65;0.65;;;;;;;;;;5063912;28;20123;-86
2022/01/19 14:56:35;;;;;;;0.20;0.20;;;;;;;;;;5064054;28;20074;-86
2022/01/19 14:59:09;;;;;;;1.35;0.57;;;;;;;;;;5062004;28;20075;-86
2022/01/19 15:01:35;;;;;;;2.05;1.80;;;;;;;;;;5063757;28;20021;-86
2022/01/19 15:04:02;;;;;;;0.98;0.85;;;;;;;;;;5065191;28;20071;-87
2022/01/19 15:06:28;;;;;;;1.02;0.98;;;;;;;;;;5065206;28;20020;-86
2022/01/19 15:08:54;;;;;;;0.00;0.00;;;;;;;;;;5065187;28;20033;-86
2022/01/19 15:11:21;;;;;;;0.40;0.40;;;;;;;;;;5064854;28;20063;-86
2022/01/19 15:13:47;;;;;;;1.08;0.77;;;;;;;;;;5065107;28;20070;-85
2022/01/19 15:16:14;;;;;;;0.50;0.50;;;;;;;;;;5065569;28;20560;-85
2022/01/19 15:18:40;;;;;;;0.43;0.43;;;;;;;;;;5064428;28;20047;-85
2022/01/19 15:21:06;;;;;;;1.00;1.00;;;;;;;;;;5051871;28;20029;-85
2022/01/19 15:23:32;;;;;;;1.13;1.03;;;;;;;;;;5053905;28;20037;-86
2022/01/19 15:26:00;;;;;;;0.07;0.07;;;;;;;;;;5070626;28;20136;-86
2022/01/19 15:28:26;;;;;;;0.10;0.10;;;;;;;;;;5053725;28;20039;-86
2022/01/19 15:30:52;;;;;;;0.40;0.22;;;;;;;;;;5049521;28;20026;-85
2022/01/19 15:33:20;;;;;;;1.55;1.27;;;;;;;;;;5061706;28;20513;-86
2022/01/19 15:35:48;;;;;;;0.10;0.10;;;;;;;;;;5049828;28;20029;-85
2022/01/19 15:38:14;;;;;;;0.10;0.10;;;;;;;;;;5053598;28;20052;-85
2022/01/19 15:40:41;;;;;;;1.10;0.97;;;;;;;;;;5053964;28;20028;-85
2022/01/19 15:43:09;;;;;;;0.85;0.73;;;;;;;;;;5051274;28;20040;-85
2022/01/19 15:45:36;;;;;;;0.57;0.45;;;;;;;;;;5057261;28;20093;-81
2022/01/19 15:48:03;;;;;;;0.85;0.85;;;;;;;;;;5063858;28;20037;-81
2022/01/19 15:50:29;;;;;;;;;;;;;;;;;;5063952;28;20533;-80
2022/01/19 15:52:55;;;;;;;0.20;0.20;;;;;;;;;;5062426;28;20373;-81
2022/01/19 15:55:21;;;;;;;3.83;1.30;;;;;;;;;;5063518;28;20029;-80
2022/01/19 15:57:47;;;;;;;2.15;1.95;;;;;;;;;;5063885;28;20321;-81
2022/01/19 16:00:14;;;;;;;4.50;2.73;;;;;;;;;;5064211;28;20033;-80
2022/01/19 16:02:40;;;;;;;3.15;1.15;;;;;;;;;;5063609;28;20428;-79
2022/01/19 16:05:06;;;;;;;0.10;0.10;;;;;;;;;;5063325;28;20028;-79
2022/01/19 16:07:33;;;;;;;1.45;1.10;;;;;;;;;;5062274;28;20028;-86
2022/01/19 16:10:00;;;;;;;1.60;0.77;;;;;;;;;;5063114;28;20493;-85
2022/01/19 16:12:26;;;;;;;1.77;1.67;;;;;;;;;;5048559;28;20075;-86
2022/01/19 16:14:52;;;;;;;1.60;1.40;;;;;;;;;;5052876;28;20132;-86
2022/01/19 16:17:18;;;;;;;1.23;1.20;;;;;;;;;;5059677;28;20040;-86
2022/01/19 16:19:44;;;;;;;1.77;1.37;;;;;;;;;;5060857;28;20032;-86